Time;durP1;ratioP1;P1;durP2;ratioP2;P2;SDS_P1;SDS_P2;PMS_P1;PMS_P2;Temp;Humidity;BMP_temperature;BMP_pressure;BME280_temperature;BME280_humidity;BME280_pressure;Samples;Min_cycle;Max_cycle;Signal;HPM_P1;HPM_P2
2023/08/11 00:01:13;;;;;;;6.65;4.10;;;;;;;;;;5024317;28;20056;-69
2023/08/11 00:03:39;;;;;;;10.43;3.88;;;;;;;;;;5023863;28;20070;-69
2023/08/11 00:06:07;;;;;;;7.35;3.63;;;;;;;;;;5043672;28;20079;-69
2023/08/11 00:08:32;;;;;;;7.40;3.75;;;;;;;;;;5044201;28;20553;-69
2023/08/11 00:10:58;;;;;;;7.20;3.90;;;;;;;;;;5044544;28;20059;-69
2023/08/11 00:13:24;;;;;;;5.50;3.83;;;;;;;;;;5044805;28;20518;-69
2023/08/11 00:15:49;;;;;;;9.50;3.85;;;;;;;;;;5043026;28;20028;-69
2023/08/11 00:18:15;;;;;;;7.00;4.15;;;;;;;;;;5044480;28;20017;-69
2023/08/11 00:20:41;;;;;;;4.97;3.83;;;;;;;;;;5044441;28;20040;-69
2023/08/11 00:23:06;;;;;;;7.50;4.13;;;;;;;;;;5044859;28;20037;-69
2023/08/11 00:25:32;;;;;;;5.55;3.92;;;;;;;;;;5046070;28;20037;-69
2023/08/11 00:27:58;;;;;;;6.35;3.90;;;;;;;;;;5050359;28;20044;-68
2023/08/11 00:30:24;;;;;;;5.85;3.95;;;;;;;;;;5054243;28;20040;-69
2023/08/11 00:32:49;;;;;;;8.98;4.25;;;;;;;;;;5042925;28;20194;-69
2023/08/11 00:35:15;;;;;;;5.57;3.65;;;;;;;;;;5024489;28;20049;-69
2023/08/11 00:37:40;;;;;;;5.53;3.72;;;;;;;;;;5022599;28;20776;-69
2023/08/11 00:40:08;;;;;;;6.47;3.60;;;;;;;;;;5027828;28;20037;-69
2023/08/11 00:42:34;;;;;;;7.57;4.20;;;;;;;;;;5028598;28;20499;-69
2023/08/11 00:44:59;;;;;;;5.57;3.78;;;;;;;;;;5020789;28;20038;-69
2023/08/11 00:47:28;;;;;;;9.20;3.83;;;;;;;;;;5028212;28;20029;-69
2023/08/11 00:49:54;;;;;;;7.50;3.90;;;;;;;;;;5040573;28;20589;-69
2023/08/11 00:52:20;;;;;;;5.72;3.83;;;;;;;;;;5028114;28;20029;-69
2023/08/11 00:54:45;;;;;;;7.00;3.83;;;;;;;;;;5028071;28;20112;-69
2023/08/11 00:57:13;;;;;;;9.63;3.90;;;;;;;;;;5048243;28;20021;-69
2023/08/11 00:59:38;;;;;;;6.82;3.92;;;;;;;;;;5047913;28;20033;-69
2023/08/11 01:02:04;;;;;;;7.75;3.70;;;;;;;;;;5035736;28;20101;-69
2023/08/11 01:04:30;;;;;;;10.45;3.85;;;;;;;;;;5027469;28;20048;-69
2023/08/11 01:07:33;;;;;;;6.50;3.72;;;;;;;;;;5012375;28;20646;-69
2023/08/11 01:10:03;;;;;;;10.40;4.43;;;;;;;;;;5008932;28;20155;-69
2023/08/11 01:12:53;;;;;;;6.60;3.72;;;;;;;;;;5028066;28;20295;-69
2023/08/11 01:15:24;;;;;;;6.85;4.00;;;;;;;;;;5025346;28;20077;-69
2023/08/11 01:17:50;;;;;;;8.05;4.00;;;;;;;;;;5015450;28;20034;-69
2023/08/11 01:20:17;;;;;;;6.55;3.75;;;;;;;;;;5020520;28;20103;-69
2023/08/11 01:22:59;;;;;;;6.47;3.80;;;;;;;;;;5020299;28;20049;-69
2023/08/11 01:25:25;;;;;;;5.97;3.40;;;;;;;;;;5016338;28;20033;-69
2023/08/11 01:27:58;;;;;;;6.30;4.05;;;;;;;;;;5014432;28;20553;-69
2023/08/11 01:30:25;;;;;;;7.88;4.15;;;;;;;;;;5032113;28;20064;-69
2023/08/11 01:32:54;;;;;;;8.40;3.60;;;;;;;;;;5020066;28;20038;-69
2023/08/11 01:35:20;;;;;;;9.50;3.60;;;;;;;;;;5019155;28;20046;-69
2023/08/11 01:37:46;;;;;;;7.53;4.20;;;;;;;;;;5048191;28;20469;-69
2023/08/11 01:40:13;;;;;;;6.50;3.75;;;;;;;;;;5055319;28;20029;-69
2023/08/11 01:42:40;;;;;;;8.30;4.18;;;;;;;;;;5052377;28;20025;-69
2023/08/11 01:45:07;;;;;;;7.95;3.97;;;;;;;;;;5047769;28;20037;-69
2023/08/11 01:47:36;;;;;;;6.05;4.20;;;;;;;;;;5047191;28;20119;-69
2023/08/11 01:50:03;;;;;;;8.77;4.88;;;;;;;;;;5039619;28;20037;-69
2023/08/11 01:52:31;;;;;;;8.27;4.50;;;;;;;;;;5056913;28;20029;-69
2023/08/11 01:54:56;;;;;;;8.38;4.50;;;;;;;;;;5053365;28;20033;-69
2023/08/11 01:57:22;;;;;;;6.88;4.03;;;;;;;;;;5047757;28;20040;-69
2023/08/11 01:59:47;;;;;;;9.05;4.25;;;;;;;;;;5046928;28;20048;-69
2023/08/11 02:02:13;;;;;;;7.03;4.22;;;;;;;;;;5044310;28;20041;-69
2023/08/11 02:04:38;;;;;;;5.90;3.80;;;;;;;;;;5049607;28;20550;-69
2023/08/11 02:07:04;;;;;;;6.72;4.13;;;;;;;;;;5046643;28;20041;-69
2023/08/11 02:09:31;;;;;;;6.45;4.13;;;;;;;;;;5046417;28;20033;-69
2023/08/11 02:11:56;;;;;;;6.40;3.90;;;;;;;;;;5054394;28;20036;-69
2023/08/11 02:14:22;;;;;;;7.78;3.90;;;;;;;;;;5060516;28;20063;-69
2023/08/11 02:16:47;;;;;;;6.05;4.03;;;;;;;;;;5052714;28;20041;-69
2023/08/11 02:19:13;;;;;;;9.25;4.35;;;;;;;;;;5057264;28;20047;-69
2023/08/11 02:21:39;;;;;;;11.02;4.50;;;;;;;;;;5044088;28;20033;-69
2023/08/11 02:24:04;;;;;;;5.53;3.53;;;;;;;;;;5038007;28;20041;-69
2023/08/11 02:26:30;;;;;;;6.15;3.88;;;;;;;;;;5046464;28;20043;-68
2023/08/11 02:28:55;;;;;;;8.20;4.10;;;;;;;;;;5058163;28;20072;-69
2023/08/11 02:31:20;;;;;;;6.43;3.60;;;;;;;;;;5045539;28;20441;-69
2023/08/11 02:33:46;;;;;;;7.22;3.70;;;;;;;;;;5044612;28;20127;-69
2023/08/11 02:36:12;;;;;;;7.05;4.15;;;;;;;;;;5046110;28;20029;-69
2023/08/11 02:38:38;;;;;;;6.32;3.95;;;;;;;;;;5060934;28;20029;-69
2023/08/11 02:41:03;;;;;;;9.27;3.85;;;;;;;;;;5043959;28;20029;-69
2023/08/11 02:43:28;;;;;;;9.73;4.32;;;;;;;;;;5034763;28;20044;-69
2023/08/11 02:45:54;;;;;;;8.77;3.95;;;;;;;;;;5039996;28;20508;-69
2023/08/11 02:48:19;;;;;;;5.72;3.78;;;;;;;;;;5045027;28;20035;-69
2023/08/11 02:50:44;;;;;;;6.03;3.60;;;;;;;;;;5035553;28;20577;-69
2023/08/11 02:53:10;;;;;;;6.78;3.38;;;;;;;;;;5045401;28;20131;-69
2023/08/11 02:55:35;;;;;;;7.50;3.80;;;;;;;;;;5042637;28;20037;-69
2023/08/11 02:58:01;;;;;;;8.82;3.75;;;;;;;;;;5045253;28;20024;-69
2023/08/11 03:00:28;;;;;;;7.47;3.58;;;;;;;;;;5045070;28;20502;-69
2023/08/11 03:02:54;;;;;;;6.45;3.58;;;;;;;;;;5034231;28;20116;-69
2023/08/11 03:05:20;;;;;;;6.78;3.63;;;;;;;;;;5044132;28;20124;-69
2023/08/11 03:07:45;;;;;;;7.53;4.00;;;;;;;;;;5045638;28;20060;-69
2023/08/11 03:10:10;;;;;;;5.95;3.78;;;;;;;;;;5045522;28;20029;-68
2023/08/11 03:12:36;;;;;;;6.55;3.40;;;;;;;;;;5045694;28;20024;-69
2023/08/11 03:15:06;;;;;;;7.22;3.67;;;;;;;;;;5050561;28;20754;-68
2023/08/11 03:17:32;;;;;;;8.13;3.47;;;;;;;;;;5055947;28;20043;-69
2023/08/11 03:19:58;;;;;;;6.97;4.10;;;;;;;;;;5070268;28;20037;-69
2023/08/11 03:22:23;;;;;;;5.82;3.25;;;;;;;;;;5037450;28;20131;-69
2023/08/11 03:24:49;;;;;;;7.88;3.70;;;;;;;;;;5045130;28;20025;-69
2023/08/11 03:27:18;;;;;;;6.38;3.60;;;;;;;;;;5045144;28;20028;-69
2023/08/11 03:29:44;;;;;;;5.88;3.50;;;;;;;;;;5044895;28;20394;-69
2023/08/11 03:32:09;;;;;;;5.97;3.90;;;;;;;;;;5044826;28;20568;-69
2023/08/11 03:34:35;;;;;;;16.08;3.92;;;;;;;;;;5044924;28;20417;-69
2023/08/11 03:37:00;;;;;;;6.68;3.85;;;;;;;;;;5043824;28;20049;-69
2023/08/11 03:39:25;;;;;;;6.72;4.05;;;;;;;;;;5045536;28;20044;-69
2023/08/11 03:41:52;;;;;;;6.65;3.50;;;;;;;;;;5056492;28;20549;-69
2023/08/11 03:44:17;;;;;;;11.32;3.95;;;;;;;;;;5044781;28;20051;-69
2023/08/11 03:46:43;;;;;;;9.93;3.90;;;;;;;;;;5052285;28;20037;-68
2023/08/11 03:49:08;;;;;;;7.25;3.60;;;;;;;;;;5054250;28;20068;-69
2023/08/11 03:51:33;;;;;;;10.25;3.60;;;;;;;;;;5044816;28;20025;-69
2023/08/11 03:54:02;;;;;;;8.35;3.33;;;;;;;;;;5045528;28;20028;-69
2023/08/11 03:56:28;;;;;;;5.50;3.58;;;;;;;;;;5054433;28;20067;-69
2023/08/11 03:58:53;;;;;;;5.60;3.40;;;;;;;;;;5040330;28;20720;-69
2023/08/11 04:01:19;;;;;;;6.80;3.45;;;;;;;;;;5044628;28;20043;-69
2023/08/11 04:03:44;;;;;;;6.53;3.65;;;;;;;;;;5044737;28;20032;-69
2023/08/11 04:06:10;;;;;;;5.90;3.78;;;;;;;;;;5044897;28;20017;-69
2023/08/11 04:08:35;;;;;;;5.60;3.30;;;;;;;;;;5043525;28;20040;-69
2023/08/11 04:11:01;;;;;;;8.35;3.45;;;;;;;;;;5043078;28;20040;-69
2023/08/11 04:13:26;;;;;;;5.38;3.28;;;;;;;;;;5047455;28;20155;-68
2023/08/11 04:15:52;;;;;;;5.72;3.53;;;;;;;;;;5046951;28;20041;-68
2023/08/11 04:18:18;;;;;;;5.25;3.63;;;;;;;;;;5049102;28;20544;-69
2023/08/11 04:20:44;;;;;;;7.45;3.47;;;;;;;;;;5035730;28;20041;-69
2023/08/11 04:23:09;;;;;;;6.90;3.33;;;;;;;;;;5047560;28;20694;-69
2023/08/11 04:25:34;;;;;;;5.97;3.30;;;;;;;;;;5048336;28;20091;-69
2023/08/11 04:28:01;;;;;;;6.13;3.20;;;;;;;;;;5048384;28;20033;-69
2023/08/11 04:30:27;;;;;;;5.78;2.78;;;;;;;;;;5048144;28;20443;-69
2023/08/11 04:32:52;;;;;;;4.90;3.13;;;;;;;;;;5048527;28;20124;-69
2023/08/11 04:35:18;;;;;;;9.02;3.60;;;;;;;;;;5049001;28;20036;-69
2023/08/11 04:37:44;;;;;;;4.53;3.33;;;;;;;;;;5052024;28;20039;-69
2023/08/11 04:40:10;;;;;;;6.10;3.50;;;;;;;;;;5058240;28;20053;-69
2023/08/11 04:42:42;;;;;;;7.57;2.83;;;;;;;;;;5040406;28;20021;-69
2023/08/11 04:45:08;;;;;;;5.45;3.05;;;;;;;;;;5048995;28;20079;-69
2023/08/11 04:47:34;;;;;;;7.20;3.50;;;;;;;;;;5048198;28;20047;-69
2023/08/11 04:49:59;;;;;;;7.35;3.33;;;;;;;;;;5047427;28;20029;-69
2023/08/11 04:52:25;;;;;;;5.55;3.33;;;;;;;;;;5046451;28;20029;-69
2023/08/11 04:54:50;;;;;;;6.97;3.25;;;;;;;;;;5047937;28;20043;-69
2023/08/11 04:57:16;;;;;;;8.82;3.42;;;;;;;;;;5047819;28;20023;-69
2023/08/11 04:59:41;;;;;;;6.72;3.33;;;;;;;;;;5047847;28;20040;-69
2023/08/11 05:02:07;;;;;;;8.95;3.50;;;;;;;;;;5047934;28;20112;-69
2023/08/11 05:04:33;;;;;;;6.65;3.67;;;;;;;;;;5047597;28;20040;-69
2023/08/11 05:06:58;;;;;;;5.35;2.92;;;;;;;;;;5048052;28;20498;-69
2023/08/11 05:09:24;;;;;;;7.32;3.45;;;;;;;;;;5048484;28;20060;-69
2023/08/11 05:11:49;;;;;;;5.38;3.17;;;;;;;;;;5047390;28;20033;-69
2023/08/11 05:14:15;;;;;;;4.85;3.15;;;;;;;;;;5046366;28;20033;-69
2023/08/11 05:16:41;;;;;;;5.25;2.83;;;;;;;;;;5047632;28;20096;-68
2023/08/11 05:19:06;;;;;;;8.00;3.40;;;;;;;;;;5047479;28;20037;-69
2023/08/11 05:21:32;;;;;;;4.90;2.90;;;;;;;;;;5034335;28;20576;-69
2023/08/11 05:23:57;;;;;;;5.03;2.88;;;;;;;;;;5046758;28;20033;-69
2023/08/11 05:26:22;;;;;;;8.48;3.20;;;;;;;;;;5047049;28;20036;-69
2023/08/11 05:28:48;;;;;;;7.68;4.22;;;;;;;;;;5047173;28;20033;-69
2023/08/11 05:31:13;;;;;;;5.50;3.47;;;;;;;;;;5046136;28;20399;-69
2023/08/11 05:33:38;;;;;;;9.70;5.22;;;;;;;;;;5046347;28;20032;-69
2023/08/11 05:36:04;;;;;;;9.63;5.50;;;;;;;;;;5047004;28;20025;-69
2023/08/11 05:38:29;;;;;;;7.55;4.25;;;;;;;;;;5046806;28;20041;-69
2023/08/11 05:40:55;;;;;;;6.32;4.28;;;;;;;;;;5051081;28;20029;-69
2023/08/11 05:43:20;;;;;;;6.47;4.00;;;;;;;;;;5027295;28;20033;-68
2023/08/11 05:45:45;;;;;;;6.68;3.60;;;;;;;;;;5026347;28;20083;-69
2023/08/11 05:48:11;;;;;;;8.32;3.78;;;;;;;;;;5022775;28;20076;-69
2023/08/11 05:50:38;;;;;;;7.70;3.88;;;;;;;;;;5051511;28;20110;-69
2023/08/11 05:53:03;;;;;;;5.07;3.63;;;;;;;;;;5048565;28;20036;-69
2023/08/11 05:55:29;;;;;;;9.57;3.95;;;;;;;;;;5046080;28;20106;-69
2023/08/11 05:57:54;;;;;;;7.38;3.50;;;;;;;;;;5054834;28;20698;-69
2023/08/11 06:00:20;;;;;;;6.88;3.45;;;;;;;;;;5048298;28;20100;-69
2023/08/11 06:02:45;;;;;;;6.22;3.90;;;;;;;;;;5052681;28;20040;-69
2023/08/11 06:05:12;;;;;;;5.10;3.22;;;;;;;;;;5054059;28;20069;-69
2023/08/11 06:07:39;;;;;;;8.43;3.60;;;;;;;;;;5046547;28;20526;-69
2023/08/11 06:10:05;;;;;;;5.97;3.40;;;;;;;;;;5046396;28;20041;-69
2023/08/11 06:12:31;;;;;;;7.50;3.03;;;;;;;;;;5046704;28;20048;-69
2023/08/11 06:14:56;;;;;;;5.63;3.38;;;;;;;;;;5046787;28;20142;-69
2023/08/11 06:17:22;;;;;;;6.47;3.45;;;;;;;;;;5046198;28;20897;-69
2023/08/11 06:19:47;;;;;;;5.22;3.47;;;;;;;;;;5058972;28;20068;-69
2023/08/11 06:22:12;;;;;;;5.38;3.60;;;;;;;;;;5046241;28;20032;-69
2023/08/11 06:24:38;;;;;;;6.00;3.50;;;;;;;;;;5050209;28;20025;-69
2023/08/11 06:27:04;;;;;;;5.45;3.35;;;;;;;;;;5042220;28;20132;-69
2023/08/11 06:29:29;;;;;;;8.88;3.92;;;;;;;;;;5043558;28;20056;-69
2023/08/11 06:31:55;;;;;;;5.53;3.33;;;;;;;;;;5022078;28;20555;-69
2023/08/11 06:34:21;;;;;;;4.63;3.30;;;;;;;;;;5024407;28;20075;-69
2023/08/11 06:36:47;;;;;;;5.72;3.47;;;;;;;;;;5024295;28;20021;-69
2023/08/11 06:39:13;;;;;;;6.18;3.42;;;;;;;;;;5025409;28;20023;-69
2023/08/11 06:41:39;;;;;;;6.88;3.30;;;;;;;;;;5040370;28;20225;-69
2023/08/11 06:44:07;;;;;;;4.97;3.50;;;;;;;;;;5045113;28;20052;-69
2023/08/11 06:46:33;;;;;;;4.88;3.50;;;;;;;;;;5045856;28;20052;-69
2023/08/11 06:48:59;;;;;;;7.53;3.83;;;;;;;;;;5045276;28;20052;-69
2023/08/11 06:51:24;;;;;;;5.90;3.63;;;;;;;;;;5045918;28;20521;-69
2023/08/11 06:53:49;;;;;;;6.28;3.38;;;;;;;;;;5027764;28;20064;-69
2023/08/11 06:56:15;;;;;;;5.10;3.53;;;;;;;;;;5024727;28;20426;-69
2023/08/11 06:58:40;;;;;;;6.38;3.65;;;;;;;;;;5024951;28;20033;-69
2023/08/11 07:01:05;;;;;;;6.57;3.25;;;;;;;;;;5025235;28;20037;-69
2023/08/11 07:03:33;;;;;;;9.18;3.58;;;;;;;;;;5025514;28;20454;-69
2023/08/11 07:05:59;;;;;;;4.60;3.30;;;;;;;;;;5024208;28;20133;-69
2023/08/11 07:08:24;;;;;;;7.82;3.17;;;;;;;;;;5025068;28;20033;-69
2023/08/11 07:10:50;;;;;;;5.10;3.20;;;;;;;;;;5033981;28;20033;-68
2023/08/11 07:13:15;;;;;;;6.40;3.63;;;;;;;;;;5037347;28;20029;-68
2023/08/11 07:15:42;;;;;;;7.05;3.88;;;;;;;;;;5024318;28;20037;-68
2023/08/11 07:18:07;;;;;;;8.60;3.40;;;;;;;;;;5022385;28;20092;-68
2023/08/11 07:20:33;;;;;;;6.00;3.30;;;;;;;;;;5024440;28;20466;-68
2023/08/11 07:22:58;;;;;;;6.55;3.38;;;;;;;;;;5035674;28;20041;-68
2023/08/11 07:25:23;;;;;;;8.05;3.45;;;;;;;;;;5022780;28;20041;-68
2023/08/11 07:27:49;;;;;;;4.97;3.33;;;;;;;;;;5033374;28;20110;-68
2023/08/11 07:30:14;;;;;;;6.43;3.05;;;;;;;;;;5040946;28;20463;-68
2023/08/11 07:32:41;;;;;;;7.57;3.72;;;;;;;;;;5044255;28;20056;-68
2023/08/11 07:35:07;;;;;;;5.70;3.30;;;;;;;;;;5030014;28;20048;-68
2023/08/11 07:37:32;;;;;;;5.65;3.00;;;;;;;;;;5028814;28;20570;-68
2023/08/11 07:39:58;;;;;;;8.07;3.58;;;;;;;;;;5025584;28;20025;-68
2023/08/11 07:42:23;;;;;;;3.80;2.63;;;;;;;;;;5033681;28;20029;-68
2023/08/11 07:44:48;;;;;;;5.70;3.60;;;;;;;;;;5020377;28;20042;-68
2023/08/11 07:47:14;;;;;;;5.60;3.53;;;;;;;;;;5024511;28;20039;-68
2023/08/11 07:49:39;;;;;;;4.82;2.85;;;;;;;;;;5007647;28;20128;-68
2023/08/11 07:52:05;;;;;;;5.10;3.17;;;;;;;;;;5030388;28;20384;-67
2023/08/11 07:54:30;;;;;;;4.38;3.20;;;;;;;;;;5037037;28;20036;-67
2023/08/11 07:56:55;;;;;;;4.57;3.13;;;;;;;;;;5039134;28;20033;-68
2023/08/11 07:59:21;;;;;;;4.90;3.20;;;;;;;;;;5039506;28;20044;-67
2023/08/11 08:01:46;;;;;;;6.40;2.95;;;;;;;;;;5038419;28;20132;-68
2023/08/11 08:04:12;;;;;;;9.00;3.47;;;;;;;;;;5009441;28;20414;-68
2023/08/11 08:06:45;;;;;;;4.70;3.25;;;;;;;;;;5044345;28;20028;-68
2023/08/11 08:09:11;;;;;;;6.38;3.15;;;;;;;;;;5041978;28;20035;-68
2023/08/11 08:11:38;;;;;;;10.50;3.35;;;;;;;;;;5035957;28;20038;-68
2023/08/11 08:14:04;;;;;;;6.63;3.35;;;;;;;;;;5039417;28;20514;-68
2023/08/11 08:16:30;;;;;;;8.88;3.60;;;;;;;;;;5042564;28;20048;-68
2023/08/11 08:18:55;;;;;;;5.82;3.35;;;;;;;;;;5052265;28;20021;-68
2023/08/11 08:21:20;;;;;;;7.07;3.55;;;;;;;;;;5039767;28;20052;-68
2023/08/11 08:23:47;;;;;;;6.88;3.53;;;;;;;;;;5035701;28;20065;-66
2023/08/11 08:26:12;;;;;;;5.15;3.80;;;;;;;;;;5036535;28;20060;-68
2023/08/11 08:28:38;;;;;;;5.22;3.70;;;;;;;;;;5041441;28;20087;-68
2023/08/11 08:31:03;;;;;;;6.00;3.30;;;;;;;;;;5043104;28;20084;-68
2023/08/11 08:33:28;;;;;;;6.57;3.33;;;;;;;;;;5038869;28;20033;-68
2023/08/11 08:35:54;;;;;;;6.13;3.47;;;;;;;;;;5041118;28;20059;-68
2023/08/11 08:38:19;;;;;;;8.55;3.47;;;;;;;;;;5043678;28;20465;-68
2023/08/11 08:40:45;;;;;;;5.70;3.47;;;;;;;;;;5055572;28;20040;-68
2023/08/11 08:43:11;;;;;;;7.63;5.28;;;;;;;;;;5045339;28;20037;-67
2023/08/11 08:45:38;;;;;;;5.95;3.50;;;;;;;;;;5043516;28;21510;-67
2023/08/11 08:48:09;;;;;;;7.13;3.80;;;;;;;;;;5036111;28;20045;-67
2023/08/11 08:50:36;;;;;;;7.30;3.88;;;;;;;;;;5048604;28;20068;-68
2023/08/11 08:53:01;;;;;;;7.57;4.32;;;;;;;;;;5046306;28;20044;-67
2023/08/11 08:55:27;;;;;;;8.57;5.53;;;;;;;;;;5043707;28;20053;-67
2023/08/11 08:57:55;;;;;;;11.52;5.88;;;;;;;;;;5041019;28;20033;-68
2023/08/11 09:00:21;;;;;;;6.93;5.22;;;;;;;;;;5042559;28;20414;-67
2023/08/11 09:02:47;;;;;;;7.88;4.82;;;;;;;;;;5044196;28;20045;-67
2023/08/11 09:05:13;;;;;;;9.32;5.47;;;;;;;;;;5046304;28;20029;-67
2023/08/11 09:07:39;;;;;;;10.70;5.47;;;;;;;;;;5047236;28;20090;-68
2023/08/11 09:10:05;;;;;;;9.13;4.82;;;;;;;;;;5045060;28;20028;-67
2023/08/11 09:12:30;;;;;;;7.00;4.03;;;;;;;;;;5047681;28;20029;-67
2023/08/11 09:14:58;;;;;;;7.35;4.00;;;;;;;;;;5046362;28;20043;-68
2023/08/11 09:17:24;;;;;;;8.68;4.53;;;;;;;;;;5046516;28;20032;-67
2023/08/11 09:19:51;;;;;;;7.82;3.88;;;;;;;;;;5041437;28;20049;-68
2023/08/11 09:22:23;;;;;;;7.90;4.43;;;;;;;;;;5037734;28;20044;-67
2023/08/11 09:24:49;;;;;;;4.65;3.95;;;;;;;;;;5046043;28;20036;-68
2023/08/11 09:27:14;;;;;;;6.50;3.83;;;;;;;;;;5047080;28;20032;-68
2023/08/11 09:29:39;;;;;;;5.47;3.50;;;;;;;;;;5045583;28;20550;-68
2023/08/11 09:32:06;;;;;;;6.80;4.00;;;;;;;;;;5041214;28;20105;-67
2023/08/11 09:34:31;;;;;;;5.28;4.30;;;;;;;;;;5045335;28;20449;-67
2023/08/11 09:36:57;;;;;;;12.57;4.80;;;;;;;;;;5044281;28;20037;-67
2023/08/11 09:39:26;;;;;;;5.47;3.90;;;;;;;;;;5047620;28;20017;-67
2023/08/11 09:41:52;;;;;;;7.68;4.25;;;;;;;;;;5058552;28;20589;-68
2023/08/11 09:44:18;;;;;;;6.68;4.28;;;;;;;;;;5046317;28;20090;-68
2023/08/11 09:46:46;;;;;;;6.20;4.20;;;;;;;;;;5046296;28;20094;-68
2023/08/11 09:49:12;;;;;;;5.53;3.83;;;;;;;;;;5045337;28;20037;-67
2023/08/11 09:51:38;;;;;;;4.80;3.78;;;;;;;;;;5038941;28;20040;-67
2023/08/11 09:54:07;;;;;;;8.55;4.28;;;;;;;;;;5045212;28;20049;-67
2023/08/11 09:56:41;;;;;;;5.40;3.58;;;;;;;;;;5045896;28;20041;-68
2023/08/11 09:59:11;;;;;;;4.90;3.83;;;;;;;;;;5046681;28;20128;-68
2023/08/11 10:01:37;;;;;;;6.25;3.90;;;;;;;;;;5042781;28;20061;-68
2023/08/11 10:04:10;;;;;;;5.40;4.05;;;;;;;;;;5042052;28;20056;-67
2023/08/11 10:06:38;;;;;;;7.38;4.45;;;;;;;;;;5046558;28;20067;-68
2023/08/11 10:09:06;;;;;;;5.72;4.00;;;;;;;;;;5043652;28;20043;-67
2023/08/11 10:11:34;;;;;;;6.55;3.92;;;;;;;;;;5051860;28;20079;-67
2023/08/11 10:14:02;;;;;;;6.20;4.35;;;;;;;;;;5050159;28;20037;-67
2023/08/11 10:16:28;;;;;;;5.85;3.97;;;;;;;;;;5031338;28;20434;-68
2023/08/11 10:18:55;;;;;;;8.20;4.10;;;;;;;;;;5027743;28;20534;-68
2023/08/11 10:21:23;;;;;;;5.97;4.10;;;;;;;;;;5025707;28;20029;-68
2023/08/11 10:23:48;;;;;;;6.35;4.25;;;;;;;;;;5026681;28;20132;-67
2023/08/11 10:26:14;;;;;;;4.97;3.53;;;;;;;;;;5025662;28;20140;-68
2023/08/11 10:28:40;;;;;;;4.68;3.78;;;;;;;;;;5025271;28;20083;-68
2023/08/11 10:31:06;;;;;;;5.53;3.83;;;;;;;;;;5043212;28;20418;-67
2023/08/11 10:33:32;;;;;;;7.60;4.07;;;;;;;;;;5046781;28;20021;-68
2023/08/11 10:36:00;;;;;;;9.15;3.78;;;;;;;;;;5045310;28;20041;-68
2023/08/11 10:38:32;;;;;;;4.55;3.85;;;;;;;;;;5045280;28;20033;-68
2023/08/11 10:41:08;;;;;;;8.07;4.30;;;;;;;;;;5059167;28;20110;-68
2023/08/11 10:43:37;;;;;;;4.68;3.58;;;;;;;;;;5044646;28;20098;-68
2023/08/11 10:46:23;;;;;;;8.48;3.78;;;;;;;;;;5043828;28;20029;-68
2023/08/11 10:49:19;;;;;;;5.55;3.80;;;;;;;;;;5045427;28;20484;-68
2023/08/11 10:51:45;;;;;;;4.75;4.03;;;;;;;;;;5044432;28;20029;-68
2023/08/11 10:54:17;;;;;;;4.90;3.80;;;;;;;;;;5045047;28;20067;-68
2023/08/11 10:56:44;;;;;;;3.95;3.35;;;;;;;;;;5042922;28;20044;-68
2023/08/11 10:59:23;;;;;;;7.22;4.10;;;;;;;;;;5046892;28;20117;-68
2023/08/11 11:01:50;;;;;;;5.53;4.13;;;;;;;;;;5036479;28;20040;-67
2023/08/11 11:04:17;;;;;;;5.82;4.15;;;;;;;;;;5024713;28;20485;-68
2023/08/11 11:06:44;;;;;;;7.18;4.38;;;;;;;;;;5025547;28;20036;-68
2023/08/11 11:09:10;;;;;;;6.40;4.25;;;;;;;;;;5025134;28;20128;-68
2023/08/11 11:11:39;;;;;;;6.80;4.75;;;;;;;;;;5025120;28;20655;-68
2023/08/11 11:14:09;;;;;;;6.38;4.43;;;;;;;;;;5025132;28;20091;-68
2023/08/11 11:16:35;;;;;;;6.72;4.50;;;;;;;;;;5024989;28;20088;-68
2023/08/11 11:19:02;;;;;;;6.55;4.10;;;;;;;;;;5036517;28;20031;-68
2023/08/11 11:21:28;;;;;;;4.90;3.88;;;;;;;;;;5025264;28;20048;-68
2023/08/11 11:23:53;;;;;;;4.38;3.60;;;;;;;;;;5025225;28;20033;-68
2023/08/11 11:26:25;;;;;;;6.30;4.00;;;;;;;;;;5025197;28;20586;-69
2023/08/11 11:28:54;;;;;;;7.50;4.05;;;;;;;;;;5025227;28;20025;-68
2023/08/11 11:31:21;;;;;;;7.22;3.88;;;;;;;;;;5037124;28;20041;-68
2023/08/11 11:33:48;;;;;;;5.47;4.22;;;;;;;;;;5019140;28;20036;-68
2023/08/11 11:36:13;;;;;;;7.85;3.95;;;;;;;;;;5040695;28;20088;-68
2023/08/11 11:38:43;;;;;;;6.65;3.92;;;;;;;;;;5050319;28;20063;-68
2023/08/11 11:41:19;;;;;;;4.82;3.53;;;;;;;;;;5044335;28;20034;-69
2023/08/11 11:43:47;;;;;;;4.63;3.90;;;;;;;;;;5046253;28;20082;-68
2023/08/11 11:46:16;;;;;;;4.90;3.95;;;;;;;;;;5044923;28;20764;-68
2023/08/11 11:48:44;;;;;;;7.82;4.03;;;;;;;;;;5045300;28;20033;-68
2023/08/11 11:51:11;;;;;;;6.13;4.00;;;;;;;;;;5044621;28;20071;-68
2023/08/11 11:53:40;;;;;;;6.28;3.90;;;;;;;;;;5033533;28;20033;-68
2023/08/11 11:56:07;;;;;;;8.00;3.97;;;;;;;;;;5031263;28;20040;-68
2023/08/11 11:58:33;;;;;;;6.93;4.10;;;;;;;;;;5042675;28;20057;-70
2023/08/11 12:01:19;;;;;;;9.48;4.13;;;;;;;;;;5038004;28;20028;-69
2023/08/11 12:03:48;;;;;;;6.45;4.00;;;;;;;;;;5036487;28;20502;-70
2023/08/11 12:06:17;;;;;;;9.27;4.82;;;;;;;;;;5036118;28;20045;-69
2023/08/11 12:08:43;;;;;;;6.03;4.28;;;;;;;;;;5022709;28;20046;-69
2023/08/11 12:11:11;;;;;;;4.93;4.05;;;;;;;;;;5015529;28;20037;-70
2023/08/11 12:13:38;;;;;;;5.50;4.55;;;;;;;;;;5029782;28;20132;-72
2023/08/11 12:16:05;;;;;;;6.45;4.43;;;;;;;;;;5035400;28;20053;-70
2023/08/11 12:18:31;;;;;;;5.68;4.45;;;;;;;;;;5043493;28;20025;-70
2023/08/11 12:21:00;;;;;;;6.30;4.45;;;;;;;;;;5032723;28;20037;-69
2023/08/11 12:23:27;;;;;;;13.50;4.95;;;;;;;;;;5029386;28;20069;-69
2023/08/11 12:25:52;;;;;;;6.82;5.32;;;;;;;;;;5010553;28;20041;-69
2023/08/11 12:28:18;;;;;;;8.52;4.85;;;;;;;;;;5018928;28;20048;-69
2023/08/11 12:30:44;;;;;;;6.30;4.68;;;;;;;;;;5021955;28;20569;-68
2023/08/11 12:33:09;;;;;;;9.68;4.88;;;;;;;;;;5025287;28;20045;-69
2023/08/11 12:35:34;;;;;;;6.47;4.40;;;;;;;;;;5026292;28;20518;-69
2023/08/11 12:38:01;;;;;;;7.95;4.50;;;;;;;;;;5017994;28;20127;-69
2023/08/11 12:40:28;;;;;;;5.82;4.65;;;;;;;;;;5025274;28;20713;-69
2023/08/11 12:42:54;;;;;;;7.55;4.60;;;;;;;;;;5027363;28;20033;-69
2023/08/11 12:45:20;;;;;;;6.88;5.05;;;;;;;;;;5026324;28;20082;-69
2023/08/11 12:47:46;;;;;;;6.60;4.50;;;;;;;;;;5024915;28;20425;-69
2023/08/11 12:50:11;;;;;;;5.57;4.43;;;;;;;;;;5024816;28;20476;-70
2023/08/11 12:52:37;;;;;;;9.68;4.35;;;;;;;;;;5024217;28;20080;-69
2023/08/11 12:55:03;;;;;;;7.65;4.82;;;;;;;;;;5026539;28;20029;-70
2023/08/11 12:57:29;;;;;;;5.72;4.80;;;;;;;;;;5026646;28;20064;-69
2023/08/11 12:59:54;;;;;;;6.47;5.13;;;;;;;;;;5027341;28;20037;-69
2023/08/11 13:02:20;;;;;;;6.40;4.90;;;;;;;;;;5030667;28;20112;-69
2023/08/11 13:04:45;;;;;;;6.72;5.00;;;;;;;;;;5035796;28;20142;-69
2023/08/11 13:07:11;;;;;;;8.20;4.93;;;;;;;;;;5027529;28;20428;-69
2023/08/11 13:09:36;;;;;;;6.40;5.53;;;;;;;;;;5025660;28;20030;-69
2023/08/11 13:12:04;;;;;;;6.80;5.15;;;;;;;;;;5025110;28;20037;-69
2023/08/11 13:14:29;;;;;;;14.48;6.47;;;;;;;;;;5024133;28;20056;-69
2023/08/11 13:16:55;;;;;;;7.25;5.40;;;;;;;;;;5020207;28;20076;-69
2023/08/11 13:19:20;;;;;;;7.35;5.05;;;;;;;;;;5021420;28;20563;-69
2023/08/11 13:21:45;;;;;;;10.75;5.18;;;;;;;;;;5024304;28;20047;-68
2023/08/11 13:24:11;;;;;;;8.45;4.78;;;;;;;;;;5024348;28;20585;-69
2023/08/11 13:26:36;;;;;;;8.63;6.10;;;;;;;;;;5024405;28;20457;-69
2023/08/11 13:29:02;;;;;;;11.77;5.03;;;;;;;;;;5023007;28;20041;-68
2023/08/11 13:31:27;;;;;;;7.53;4.68;;;;;;;;;;5024769;28;20049;-69
2023/08/11 13:33:53;;;;;;;9.65;4.75;;;;;;;;;;5023705;28;20033;-69
2023/08/11 13:36:18;;;;;;;6.80;5.25;;;;;;;;;;5025583;28;20026;-69
2023/08/11 13:38:43;;;;;;;8.80;5.20;;;;;;;;;;5022889;28;20029;-69
2023/08/11 13:41:09;;;;;;;8.90;4.93;;;;;;;;;;5024583;28;20418;-69
2023/08/11 13:43:38;;;;;;;9.15;4.53;;;;;;;;;;5025333;28;20095;-70
2023/08/11 13:46:03;;;;;;;7.43;4.38;;;;;;;;;;5024094;28;20026;-69
2023/08/11 13:48:29;;;;;;;8.10;4.53;;;;;;;;;;5022583;28;20041;-69
2023/08/11 13:50:55;;;;;;;8.30;4.10;;;;;;;;;;5022137;28;20092;-69
2023/08/11 13:53:21;;;;;;;8.05;4.07;;;;;;;;;;5023032;28;20041;-69
2023/08/11 13:55:47;;;;;;;7.32;3.80;;;;;;;;;;5023648;28;20038;-69
2023/08/11 13:58:12;;;;;;;11.60;4.20;;;;;;;;;;5023051;28;20044;-69
2023/08/11 14:00:37;;;;;;;8.50;3.65;;;;;;;;;;5021850;28;20103;-69
2023/08/11 14:03:03;;;;;;;5.95;3.75;;;;;;;;;;5023835;28;20091;-69
2023/08/11 14:05:29;;;;;;;7.50;4.00;;;;;;;;;;5023874;28;20051;-69
2023/08/11 14:07:55;;;;;;;8.88;4.20;;;;;;;;;;5024291;28;20489;-68
2023/08/11 14:10:20;;;;;;;7.68;4.13;;;;;;;;;;5023784;28;20914;-69
2023/08/11 14:12:45;;;;;;;10.57;4.40;;;;;;;;;;5023613;28;20395;-68
2023/08/11 14:15:11;;;;;;;10.75;4.22;;;;;;;;;;5023907;28;20529;-69
2023/08/11 14:17:36;;;;;;;9.00;4.00;;;;;;;;;;5023400;28;20038;-68
2023/08/11 14:20:02;;;;;;;10.20;4.57;;;;;;;;;;5015821;28;20445;-69
2023/08/11 14:22:27;;;;;;;9.70;4.20;;;;;;;;;;5024500;28;20052;-68
2023/08/11 14:24:52;;;;;;;7.75;4.07;;;;;;;;;;5026652;28;20119;-69
2023/08/11 14:27:18;;;;;;;9.13;4.53;;;;;;;;;;5021634;28;21470;-69
2023/08/11 14:29:43;;;;;;;10.35;4.65;;;;;;;;;;5039773;28;20044;-70
2023/08/11 14:32:09;;;;;;;9.05;4.63;;;;;;;;;;5049278;28;20060;-69
2023/08/11 14:34:34;;;;;;;8.75;4.45;;;;;;;;;;5045899;28;20128;-70
2023/08/11 14:36:59;;;;;;;13.13;4.82;;;;;;;;;;5042255;28;20064;-70
2023/08/11 14:39:25;;;;;;;12.30;5.10;;;;;;;;;;5039868;28;20032;-69